createdAt,value
2023-04-16T00:01:06.442Z,95482.91
2023-04-16T00:06:28.422Z,95488.38
2023-04-16T00:11:50.441Z,95480.97
2023-04-16T00:17:12.471Z,95484.09
2023-04-16T00:22:34.445Z,95481.38
2023-04-16T00:27:56.445Z,95481.00
2023-04-16T00:33:25.469Z,95483.69
2023-04-16T00:38:47.456Z,95480.59
2023-04-16T00:44:09.415Z,95482.16
2023-04-16T00:49:31.446Z,95489.56
2023-04-16T00:54:53.448Z,95486.03
2023-04-16T01:00:16.430Z,95489.16
2023-04-16T01:05:38.425Z,95484.50
2023-04-16T01:11:00.414Z,95483.69
2023-04-16T01:16:24.553Z,95486.81
2023-04-16T01:21:46.440Z,95480.97
2023-04-16T01:27:08.420Z,95490.69
2023-04-16T01:32:30.458Z,95493.81
2023-04-16T01:37:52.412Z,95499.25
2023-04-16T01:43:14.404Z,95493.03
2023-04-16T01:48:36.434Z,95505.09
2023-04-16T01:53:58.425Z,95503.16
2023-04-16T01:59:20.432Z,95500.03
2023-04-16T02:04:42.470Z,95512.50
2023-04-16T02:10:04.397Z,95498.09
2023-04-16T02:15:27.407Z,95502.78
2023-04-16T02:20:53.399Z,95507.41
2023-04-16T02:26:15.406Z,95515.59
2023-04-16T02:31:38.462Z,95514.84
2023-04-16T02:37:01.418Z,95514.44
2023-04-16T02:42:23.400Z,95516.41
2023-04-16T02:47:45.433Z,95521.44
2023-04-16T02:53:07.428Z,95521.81
2023-04-16T02:58:30.434Z,95530.81
2023-04-16T03:03:52.404Z,95543.66
2023-04-16T03:09:14.556Z,95536.28
2023-04-16T03:14:36.376Z,95535.13
2023-04-16T03:19:58.412Z,95545.22
2023-04-16T03:25:21.405Z,95547.19
2023-04-16T03:30:43.399Z,95553.41
2023-04-16T03:36:09.399Z,95554.56
2023-04-16T03:41:31.377Z,95547.97
2023-04-16T03:46:53.497Z,95556.94
2023-04-16T03:52:15.371Z,95564.31
2023-04-16T03:57:37.377Z,95561.22
2023-04-16T04:03:01.679Z,95571.34
2023-04-16T04:08:24.399Z,95570.94
2023-04-16T04:13:46.360Z,95579.53
2023-04-16T04:19:08.610Z,95581.84
2023-04-16T04:24:30.386Z,95580.69
2023-04-16T04:29:52.369Z,95586.94
2023-04-16T04:35:22.388Z,95585.38
2023-04-16T04:40:46.370Z,95590.03
2023-04-16T04:46:09.449Z,95598.59
2023-04-16T04:51:31.350Z,95607.97
2023-04-16T04:56:53.384Z,95609.53
2023-04-16T05:02:16.572Z,95616.53
2023-04-16T05:07:38.369Z,95615.78
2023-04-16T05:13:01.342Z,95620.84
2023-04-16T05:18:23.349Z,95627.06
2023-04-16T05:23:45.355Z,95627.84
2023-04-16T05:29:07.479Z,95631.34
2023-04-16T05:34:36.384Z,95639.53
2023-04-16T05:39:58.360Z,95641.13
2023-04-16T05:45:20.354Z,95654.75
2023-04-16T05:50:43.344Z,95651.25
2023-04-16T05:56:05.349Z,95661.38
2023-04-16T06:01:28.340Z,95672.69
2023-04-16T06:06:50.350Z,95666.44
2023-04-16T06:12:12.389Z,95668.00
2023-04-16T06:17:34.355Z,95673.09
2023-04-16T06:22:56.346Z,95677.00
2023-04-16T06:28:18.329Z,95680.13
2023-04-16T06:33:47.337Z,95676.63
2023-04-16T06:39:09.661Z,95681.69
2023-04-16T06:44:31.329Z,95681.28
2023-04-16T06:49:53.331Z,95686.75
2023-04-16T06:55:16.326Z,95692.63
2023-04-16T07:00:38.388Z,95698.47
2023-04-16T07:06:00.342Z,95700.81
2023-04-16T07:11:22.341Z,95690.66
2023-04-16T07:16:44.337Z,95691.06
2023-04-16T07:22:06.306Z,95696.50
2023-04-16T07:27:28.331Z,95704.31
2023-04-16T07:32:50.331Z,95708.59
2023-04-16T07:38:12.347Z,95714.09
2023-04-16T07:43:34.356Z,95717.19
2023-04-16T07:48:56.320Z,95716.41
2023-04-16T07:54:18.316Z,95718.34
2023-04-16T07:59:40.316Z,95720.72
2023-04-16T08:05:02.590Z,95722.66
2023-04-16T08:10:24.341Z,95729.28
2023-04-16T08:15:46.390Z,95735.16
2023-04-16T08:21:08.314Z,95743.75
2023-04-16T08:26:30.357Z,95750.00
2023-04-16T08:31:52.377Z,95757.03
2023-04-16T08:37:14.326Z,95749.56
2023-04-16T08:42:54.659Z,95766.38
2023-04-16T08:48:18.422Z,95775.72
2023-04-16T08:53:49.277Z,95779.25
2023-04-16T08:59:12.397Z,95783.91
2023-04-16T09:04:35.326Z,95790.94
2023-04-16T09:09:59.298Z,95789.38
2023-04-16T09:15:23.309Z,95784.28
2023-04-16T09:20:46.312Z,95793.25
2023-04-16T09:26:08.281Z,95797.91
2023-04-16T09:31:30.327Z,95809.63
2023-04-16T09:36:52.335Z,95808.06
2023-04-16T09:42:14.284Z,95807.63
2023-04-16T09:47:37.329Z,95819.75
2023-04-16T09:52:59.305Z,95821.66
2023-04-16T09:58:21.541Z,95820.09
2023-04-16T10:03:45.688Z,95820.47
2023-04-16T10:09:09.528Z,95822.38
2023-04-16T10:14:31.305Z,95832.13
2023-04-16T10:19:54.303Z,95828.56
2023-04-16T10:25:16.268Z,95830.13
2023-04-16T10:30:39.286Z,95823.03
2023-04-16T10:36:33.280Z,95822.94
2023-04-16T10:41:56.284Z,95828.31
2023-04-16T10:47:20.330Z,95834.50
2023-04-16T10:52:42.274Z,95832.50
2023-04-16T10:58:05.287Z,95837.59
2023-04-16T11:03:27.388Z,95836.78
2023-04-16T11:08:55.011Z,95846.53
2023-04-16T11:14:18.264Z,95844.66
2023-04-16T11:19:42.261Z,95849.78
2023-04-16T11:25:09.267Z,95842.38
2023-04-16T11:30:49.278Z,95855.38
2023-04-16T11:36:12.244Z,95856.63
2023-04-16T11:41:34.296Z,95847.63
2023-04-16T11:46:57.292Z,95855.81
2023-04-16T11:52:19.268Z,95856.94
2023-04-16T11:57:41.296Z,95852.22
2023-04-16T12:03:07.464Z,95856.88
2023-04-16T12:08:39.250Z,95862.31
2023-04-16T12:14:20.242Z,95854.00
2023-04-16T12:19:55.248Z,95843.63
2023-04-16T12:25:30.262Z,95846.56
2023-04-16T12:30:58.277Z,95853.53
2023-04-16T12:36:32.253Z,95855.00
2023-04-16T12:41:54.232Z,95851.41
2023-04-16T12:47:16.249Z,95847.41
2023-04-16T12:52:38.248Z,95856.28
2023-04-16T12:58:00.234Z,95850.41
2023-04-16T13:03:22.356Z,95851.81
2023-04-16T13:08:44.301Z,95846.13
2023-04-16T13:14:06.244Z,95846.22
2023-04-16T13:19:28.260Z,95848.88
2023-04-16T13:24:50.234Z,95855.66
2023-04-16T13:30:12.235Z,95851.22
2023-04-16T13:35:41.240Z,95856.34
2023-04-16T13:41:03.267Z,95867.63
2023-04-16T13:46:25.294Z,95871.75
2023-04-16T13:51:49.240Z,95870.69
2023-04-16T13:57:11.233Z,95872.34
2023-04-16T14:02:33.335Z,95870.09
2023-04-16T14:07:55.255Z,95858.78
2023-04-16T14:13:17.216Z,95874.06
2023-04-16T14:18:39.209Z,95874.81
2023-04-16T14:24:01.215Z,95874.00
2023-04-16T14:29:23.220Z,95875.84
2023-04-16T14:34:38.228Z,95874.22
2023-04-16T14:40:00.225Z,95871.41
2023-04-16T14:45:22.230Z,95888.59
2023-04-16T14:50:45.238Z,95887.34
2023-04-16T14:56:07.222Z,95882.25
2023-04-16T15:01:29.283Z,95890.47
2023-04-16T15:06:51.222Z,95898.19
2023-04-16T15:12:13.237Z,95897.72
2023-04-16T15:17:35.223Z,95900.38
2023-04-16T15:22:57.210Z,95897.19
2023-04-16T15:28:19.218Z,95895.22
2023-04-16T15:33:41.211Z,95898.69
2023-04-16T15:39:03.211Z,95904.88
2023-04-16T15:44:25.219Z,95907.94
2023-04-16T15:49:47.220Z,95905.97
2023-04-16T15:55:10.211Z,95901.28
2023-04-16T16:00:32.217Z,95909.47
2023-04-16T16:05:55.322Z,95909.84
2023-04-16T16:11:18.203Z,95906.63
2023-04-16T16:16:41.218Z,95910.53
2023-04-16T16:22:03.183Z,95915.59
2023-04-16T16:27:28.189Z,95918.59
2023-04-16T16:32:51.281Z,95913.41
2023-04-16T16:38:13.227Z,95914.03
2023-04-16T16:43:35.204Z,95917.91
2023-04-16T16:48:57.181Z,95911.19
2023-04-16T16:54:22.192Z,95918.31
2023-04-16T16:59:44.185Z,95914.09
2023-04-16T17:05:06.213Z,95922.38
2023-04-16T17:10:28.195Z,95925.66
2023-04-16T17:15:50.222Z,95927.75
2023-04-16T17:21:12.406Z,95933.69
2023-04-16T17:26:34.186Z,95939.22
2023-04-16T17:31:56.274Z,95946.72
2023-04-16T17:37:18.205Z,95945.22
2023-04-16T17:42:43.191Z,95955.50
2023-04-16T17:48:05.224Z,95955.16
2023-04-16T17:53:27.183Z,95956.00
2023-04-16T17:58:50.216Z,95952.97
2023-04-16T18:04:12.744Z,95974.59
2023-04-16T18:09:35.189Z,95980.16
2023-04-16T18:14:57.198Z,95978.25
2023-04-16T18:20:19.168Z,95986.13
2023-04-16T18:25:41.175Z,95982.66
2023-04-16T18:31:03.214Z,95995.63
2023-04-16T18:36:32.172Z,95999.19
2023-04-16T18:41:54.167Z,96009.41
2023-04-16T18:47:16.175Z,96018.47
2023-04-16T18:52:38.164Z,96016.56
2023-04-16T18:58:00.209Z,96025.22
2023-04-16T19:03:22.268Z,96027.97
2023-04-16T19:08:44.218Z,96024.84
2023-04-16T19:14:08.206Z,96033.09
2023-04-16T19:19:30.173Z,96036.22
2023-04-16T19:24:52.160Z,96038.22
2023-04-16T19:30:14.173Z,96036.66
2023-04-16T19:35:36.175Z,96042.53
2023-04-16T19:40:59.177Z,96045.66
2023-04-16T19:46:22.257Z,96051.13
2023-04-16T19:51:44.174Z,96057.38
2023-04-16T19:57:06.155Z,96054.66
2023-04-16T20:02:28.256Z,96066.75
2023-04-16T20:07:52.501Z,96060.88
2023-04-16T20:13:18.822Z,96063.94
2023-04-16T20:18:44.150Z,96063.94
2023-04-16T20:24:09.131Z,96072.47
2023-04-16T20:29:31.134Z,96066.59
2023-04-16T20:34:53.145Z,96067.78
2023-04-16T20:40:16.160Z,96061.53
2023-04-16T20:45:47.336Z,96055.28
2023-04-16T20:51:11.159Z,96059.56
2023-04-16T20:56:33.143Z,96064.63
2023-04-16T21:01:55.244Z,96061.53
2023-04-16T21:07:17.142Z,96063.84
2023-04-16T21:12:39.158Z,96059.56
2023-04-16T21:18:01.162Z,96065.44
2023-04-16T21:23:23.148Z,96070.56
2023-04-16T21:28:45.127Z,96072.91
2023-04-16T21:34:07.128Z,96072.53
2023-04-16T21:39:29.119Z,96078.78
2023-04-16T21:44:51.130Z,96076.03
2023-04-16T21:50:13.144Z,96073.69
2023-04-16T21:55:35.132Z,96072.13
2023-04-16T22:00:57.178Z,96073.69
2023-04-16T22:06:20.124Z,96068.59
2023-04-16T22:11:43.133Z,96068.16
2023-04-16T22:17:05.123Z,96065.81
2023-04-16T22:22:27.126Z,96071.63
2023-04-16T22:27:49.178Z,96072.00
2023-04-16T22:33:11.171Z,96068.09
2023-04-16T22:38:33.139Z,96068.84
2023-04-16T22:43:55.118Z,96075.41
2023-04-16T22:49:17.110Z,96075.00
2023-04-16T22:54:44.124Z,96071.81
2023-04-16T23:00:06.122Z,96070.56
2023-04-16T23:05:28.091Z,96065.84
2023-04-16T23:10:50.124Z,96061.50
2023-04-16T23:16:12.139Z,96061.84
2023-04-16T23:21:34.109Z,96059.91
2023-04-16T23:26:56.112Z,96049.38
2023-04-16T23:32:18.185Z,96050.94
2023-04-16T23:37:40.102Z,96047.81
2023-04-16T23:43:02.099Z,96038.84
2023-04-16T23:48:24.109Z,96045.50
2023-04-16T23:53:47.111Z,96045.53
2023-04-16T23:59:09.202Z,96042.81
